Momignies, Belgium
Current Conditions -  °F | °C
As of 9:25 PM on Thursday 23 Oct 2014 (Local Time) from EBFS Reporting Station
Broken Clouds Broken Clouds  
Wind Chill: 50°   Ceiling: 3200
Heat Index: 50°   Visibility: 6mi
Dew Point: 48°   Wind: 6mph
Humidity: 94%   Direction: 180°S
Pressure: 30.21"   Gusts: NA
Location:  50.03°N, 4.17°E
Report Text: EBFS 231925Z 18005KT 9999 BKN032 10/09 Q1023 BLU
Loading
Personal Weather Stations






























Interactive Weather Map
Tropical Storm Tracking
New forecast layout! Learn more

10-Day Weather Forecast

Advertisements
Track Severe Weather on mobile